createdAt,value
2022-11-09T00:00:44.988Z,85.23
2022-11-09T00:03:12.837Z,75.90
2022-11-09T00:05:40.527Z,73.17
2022-11-09T00:08:10.145Z,66.87
2022-11-09T00:10:38.406Z,74.03
2022-11-09T00:13:06.063Z,68.13
2022-11-09T00:15:33.399Z,59.37
2022-11-09T00:18:03.838Z,57.07
2022-11-09T00:20:31.536Z,55.10
2022-11-09T00:22:58.962Z,48.23
2022-11-09T00:25:26.402Z,51.47
2022-11-09T00:27:54.390Z,54.63
2022-11-09T00:30:22.230Z,51.67
2022-11-09T00:32:49.499Z,49.40
2022-11-09T00:35:16.864Z,46.40
2022-11-09T00:37:44.900Z,48.73
2022-11-09T00:40:13.078Z,43.33
2022-11-09T00:42:40.361Z,43.47
2022-11-09T00:45:08.630Z,43.43
2022-11-09T00:47:35.852Z,41.33
2022-11-09T00:50:03.324Z,41.70
2022-11-09T00:52:30.797Z,43.37
2022-11-09T00:54:58.001Z,46.93
2022-11-09T00:57:25.319Z,40.40
2022-11-09T00:59:54.070Z,41.87
2022-11-09T01:02:21.616Z,38.30
2022-11-09T01:04:48.995Z,38.03
2022-11-09T01:07:16.294Z,37.93
2022-11-09T01:09:43.705Z,40.87
2022-11-09T01:12:11.416Z,44.10
2022-11-09T01:14:39.010Z,40.73
2022-11-09T01:17:06.406Z,31.67
2022-11-09T01:19:33.991Z,29.63
2022-11-09T01:22:01.632Z,29.43
2022-11-09T01:28:11.933Z,41.13
2022-11-09T01:30:41.806Z,39.80
2022-11-09T01:33:11.710Z,43.10
2022-11-09T01:35:40.433Z,42.43
2022-11-09T01:38:09.534Z,38.43
2022-11-09T01:40:39.010Z,42.07
2022-11-09T01:43:18.224Z,47.43
2022-11-09T01:46:12.146Z,42.30
2022-11-09T01:48:48.574Z,39.97
2022-11-09T01:51:31.359Z,35.40
2022-11-09T01:54:07.328Z,33.73
2022-11-09T01:56:34.895Z,40.20
2022-11-09T01:59:12.124Z,38.43
2022-11-09T02:01:39.501Z,34.93
2022-11-09T02:04:15.087Z,45.13
2022-11-09T02:06:42.559Z,39.87
2022-11-09T02:09:28.158Z,38.50
2022-11-09T02:11:55.909Z,40.70
2022-11-09T02:14:26.802Z,43.83
2022-11-09T02:16:54.231Z,44.50
2022-11-09T02:19:21.534Z,49.33
2022-11-09T02:21:49.275Z,44.03
2022-11-09T02:24:16.693Z,52.83
2022-11-09T02:26:52.998Z,44.83
2022-11-09T02:29:25.678Z,43.67
2022-11-09T02:32:09.340Z,41.23
2022-11-09T02:34:36.762Z,42.87
2022-11-09T02:37:04.010Z,41.30
2022-11-09T02:39:31.550Z,35.50
2022-11-09T02:42:19.945Z,38.43
2022-11-09T02:44:53.332Z,49.63
2022-11-09T02:47:20.570Z,51.57
2022-11-09T02:49:51.127Z,41.40
2022-11-09T02:52:19.229Z,37.33
2022-11-09T02:54:46.554Z,39.83
2022-11-09T02:57:13.784Z,38.93
2022-11-09T02:59:41.168Z,51.77
2022-11-09T03:02:08.767Z,43.87
2022-11-09T03:04:36.043Z,39.07
2022-11-09T03:07:03.557Z,42.77
2022-11-09T03:09:30.897Z,44.00
2022-11-09T03:11:58.173Z,43.57
2022-11-09T03:14:25.435Z,45.43
2022-11-09T03:16:52.843Z,38.93
2022-11-09T03:19:20.180Z,38.23
2022-11-09T03:21:47.678Z,34.83
2022-11-09T03:24:14.969Z,36.07
2022-11-09T03:26:42.318Z,39.83
2022-11-09T03:29:09.535Z,37.03
2022-11-09T03:31:36.844Z,44.47
2022-11-09T03:34:04.435Z,41.13
2022-11-09T03:36:31.841Z,38.97
2022-11-09T03:38:59.166Z,37.17
2022-11-09T03:41:26.511Z,39.63
2022-11-09T03:43:53.808Z,51.80
2022-11-09T03:46:21.638Z,45.03
2022-11-09T03:48:49.184Z,39.60
2022-11-09T03:51:16.555Z,42.23
2022-11-09T03:53:43.976Z,41.40
2022-11-09T03:56:11.245Z,37.53
2022-11-09T03:58:38.595Z,41.43
2022-11-09T04:01:05.953Z,41.70
2022-11-09T04:03:33.653Z,40.93
2022-11-09T04:06:01.343Z,47.20
2022-11-09T04:08:28.636Z,45.43
2022-11-09T04:10:56.615Z,42.00
2022-11-09T04:13:24.092Z,42.47
2022-11-09T04:15:51.407Z,41.03
2022-11-09T04:18:19.181Z,48.77
2022-11-09T04:20:46.462Z,46.43
2022-11-09T04:23:14.770Z,46.53
2022-11-09T04:25:43.474Z,56.10
2022-11-09T04:28:13.916Z,41.50
2022-11-09T04:30:41.608Z,41.37
2022-11-09T04:33:09.926Z,40.17
2022-11-09T04:35:37.367Z,34.17
2022-11-09T04:38:07.773Z,32.97
2022-11-09T04:40:36.332Z,38.20
2022-11-09T04:43:06.336Z,39.87
2022-11-09T04:45:35.270Z,48.20
2022-11-09T04:48:04.388Z,44.13
2022-11-09T04:50:32.484Z,40.23
2022-11-09T04:53:26.389Z,45.87
2022-11-09T04:55:53.717Z,51.57
2022-11-09T04:58:24.789Z,48.03
2022-11-09T05:00:53.235Z,46.43
2022-11-09T05:03:21.083Z,44.37
2022-11-09T05:05:48.844Z,47.20
2022-11-09T05:08:16.262Z,44.00
2022-11-09T05:10:43.627Z,44.23
2022-11-09T05:13:12.507Z,58.77
2022-11-09T05:15:41.001Z,60.83
2022-11-09T05:18:10.388Z,58.93
2022-11-09T05:20:37.854Z,55.53
2022-11-09T05:23:24.035Z,63.37
2022-11-09T05:25:51.665Z,48.53
2022-11-09T05:28:19.000Z,47.63
2022-11-09T05:30:46.881Z,42.83
2022-11-09T05:33:15.142Z,47.27
2022-11-09T05:35:42.582Z,48.60
2022-11-09T05:38:10.523Z,42.20
2022-11-09T05:40:37.856Z,43.07
2022-11-09T05:43:05.135Z,48.13
2022-11-09T05:45:48.033Z,61.23
2022-11-09T05:48:18.017Z,68.13
2022-11-09T05:50:46.240Z,49.93
2022-11-09T05:53:13.998Z,50.43
2022-11-09T05:55:41.365Z,45.53
2022-11-09T05:58:11.320Z,44.73
2022-11-09T06:00:41.619Z,41.67
2022-11-09T06:03:10.916Z,45.20
2022-11-09T06:05:41.270Z,45.40
2022-11-09T06:08:13.697Z,46.20
2022-11-09T06:10:42.145Z,45.17
2022-11-09T06:13:10.082Z,48.97
2022-11-09T06:15:37.545Z,49.30
2022-11-09T06:18:04.926Z,47.80
2022-11-09T06:20:33.737Z,50.90
2022-11-09T06:23:03.859Z,46.57
2022-11-09T06:25:32.873Z,60.77
2022-11-09T06:28:02.288Z,49.30
2022-11-09T06:30:30.175Z,57.00
2022-11-09T06:33:02.196Z,56.17
2022-11-09T06:35:30.817Z,62.67
2022-11-09T06:38:01.741Z,59.53
2022-11-09T06:40:30.063Z,53.57
2022-11-09T06:42:59.569Z,48.87
2022-11-09T06:45:28.171Z,92.83
2022-11-09T06:48:02.036Z,103.83
2022-11-09T06:50:32.995Z,88.37
2022-11-09T06:53:02.493Z,82.77
2022-11-09T06:55:31.003Z,76.23
2022-11-09T06:57:58.991Z,69.97
2022-11-09T07:00:28.081Z,64.00
2022-11-09T07:02:55.657Z,81.20
2022-11-09T07:05:23.278Z,78.57
2022-11-09T07:07:50.650Z,69.33
2022-11-09T07:10:18.617Z,52.73
2022-11-09T07:12:46.308Z,72.63
2022-11-09T07:15:14.014Z,65.73
2022-11-09T07:17:42.333Z,66.87
2022-11-09T07:20:11.194Z,74.57
2022-11-09T07:22:42.089Z,65.47
2022-11-09T07:25:11.424Z,71.90
2022-11-09T07:27:38.694Z,68.17
2022-11-09T07:30:06.412Z,72.10
2022-11-09T07:33:07.452Z,73.13
2022-11-09T07:35:25.635Z,59.20
2022-11-09T07:37:53.677Z,70.60
2022-11-09T07:40:21.299Z,66.17
2022-11-09T07:42:48.906Z,79.07
2022-11-09T07:45:16.399Z,61.00
2022-11-09T07:47:43.727Z,71.60
2022-11-09T07:50:11.236Z,61.87
2022-11-09T07:52:38.727Z,51.80
2022-11-09T07:55:06.611Z,72.30
2022-11-09T07:57:34.039Z,53.90
2022-11-09T08:00:01.467Z,60.33
2022-11-09T08:02:29.023Z,63.07
2022-11-09T08:04:56.476Z,63.07
2022-11-09T08:07:24.084Z,58.07
2022-11-09T08:09:51.594Z,60.87
2022-11-09T08:12:19.061Z,53.10
2022-11-09T08:14:46.549Z,50.23
2022-11-09T08:17:14.269Z,55.63
2022-11-09T08:19:41.562Z,54.30
2022-11-09T08:22:09.588Z,53.27
2022-11-09T08:24:36.952Z,53.23
2022-11-09T08:27:04.325Z,58.60
2022-11-09T08:29:31.797Z,76.13
2022-11-09T08:31:59.143Z,76.43
2022-11-09T08:34:26.416Z,54.83
2022-11-09T08:36:53.838Z,49.73
2022-11-09T08:39:23.957Z,51.30
2022-11-09T08:41:51.283Z,53.47
2022-11-09T08:44:18.784Z,54.77
2022-11-09T08:46:46.233Z,47.93
2022-11-09T08:49:13.662Z,48.27
2022-11-09T08:51:41.287Z,46.03
2022-11-09T08:54:09.357Z,44.70
2022-11-09T08:56:36.627Z,44.33
2022-11-09T08:59:03.974Z,35.03
2022-11-09T09:01:31.265Z,35.10
2022-11-09T09:03:59.390Z,31.20
2022-11-09T09:06:30.851Z,29.90
2022-11-09T09:08:58.999Z,29.20
2022-11-09T09:11:26.419Z,27.87
2022-11-09T09:13:53.689Z,29.67
2022-11-09T09:16:20.994Z,31.33
2022-11-09T09:18:51.574Z,26.60
2022-11-09T09:21:19.280Z,26.30
2022-11-09T09:23:58.884Z,27.07
2022-11-09T09:26:26.352Z,30.33
2022-11-09T09:28:54.123Z,26.30
2022-11-09T09:31:22.466Z,26.80
2022-11-09T09:33:49.986Z,28.23
2022-11-09T09:36:20.122Z,25.00
2022-11-09T09:38:50.809Z,25.80
2022-11-09T09:41:34.837Z,22.40
2022-11-09T09:44:32.921Z,19.87
2022-11-09T09:47:19.871Z,19.90
2022-11-09T09:50:06.899Z,23.17
2022-11-09T09:53:17.547Z,18.57
2022-11-09T09:55:44.185Z,16.97
2022-11-09T09:58:21.004Z,18.20
2022-11-09T10:00:51.526Z,19.93
2022-11-09T10:03:21.192Z,19.20
2022-11-09T10:06:07.314Z,20.93
2022-11-09T10:08:59.375Z,18.33
2022-11-09T10:11:52.290Z,16.43
2022-11-09T10:14:31.441Z,18.07
2022-11-09T10:17:17.203Z,16.83
2022-11-09T10:20:03.111Z,18.33
2022-11-09T10:23:02.948Z,17.07
2022-11-09T10:28:27.746Z,19.50
2022-11-09T10:30:55.226Z,19.73
2022-11-09T10:33:23.263Z,17.23
2022-11-09T10:36:08.662Z,17.07
2022-11-09T10:38:47.701Z,16.33
2022-11-09T10:41:30.898Z,19.70
2022-11-09T10:43:58.259Z,17.53
2022-11-09T10:46:25.725Z,19.97
2022-11-09T10:48:56.245Z,16.60
2022-11-09T10:51:55.962Z,18.20
2022-11-09T10:54:28.585Z,17.33
2022-11-09T10:57:16.964Z,17.97
2022-11-09T10:59:59.802Z,20.40
2022-11-09T11:02:27.260Z,24.33
2022-11-09T11:05:06.460Z,17.17
2022-11-09T11:07:36.902Z,16.53
2022-11-09T11:10:16.029Z,20.80
2022-11-09T11:13:18.217Z,18.67
2022-11-09T11:15:47.402Z,15.60
2022-11-09T11:18:17.720Z,18.63
2022-11-09T11:20:45.520Z,17.50
2022-11-09T11:23:22.530Z,17.13
2022-11-09T11:25:58.396Z,19.30
2022-11-09T11:28:39.974Z,23.80
2022-11-09T11:31:14.660Z,16.90
2022-11-09T11:33:43.244Z,18.03
2022-11-09T11:36:35.059Z,27.67
2022-11-09T11:39:29.928Z,19.13
2022-11-09T11:42:27.866Z,15.60
2022-11-09T11:45:38.981Z,24.80
2022-11-09T11:48:18.264Z,30.47
2022-11-09T11:51:32.466Z,22.20
2022-11-09T11:54:10.869Z,18.87
2022-11-09T11:56:58.159Z,17.13
2022-11-09T11:59:36.817Z,16.93
2022-11-09T12:02:41.341Z,18.47
2022-11-09T12:05:17.349Z,14.90
2022-11-09T12:08:12.130Z,17.37
2022-11-09T12:11:00.773Z,17.30
2022-11-09T12:13:57.626Z,21.57
2022-11-09T12:16:56.261Z,20.17
2022-11-09T12:19:54.404Z,23.77
2022-11-09T12:22:55.793Z,32.73
2022-11-09T12:25:49.077Z,17.67
2022-11-09T12:29:14.878Z,21.27
2022-11-09T12:31:58.306Z,16.80
2022-11-09T12:34:44.697Z,17.80
2022-11-09T12:37:20.730Z,20.73
2022-11-09T12:39:54.145Z,18.93
2022-11-09T12:42:27.659Z,22.17
2022-11-09T12:44:55.260Z,20.60
2022-11-09T12:47:30.796Z,14.82
2022-11-09T12:49:58.950Z,14.25
2022-11-09T12:52:29.259Z,15.93
2022-11-09T12:54:57.991Z,15.07
2022-11-09T12:57:28.444Z,15.45
2022-11-09T13:00:00.795Z,15.13
2022-11-09T13:02:30.624Z,15.70
2022-11-09T13:05:04.838Z,15.07
2022-11-09T13:07:47.646Z,16.70
2022-11-09T13:10:38.868Z,15.07
2022-11-09T13:13:12.417Z,16.48
2022-11-09T13:16:13.613Z,16.90
2022-11-09T13:18:45.312Z,18.83
2022-11-09T13:21:21.824Z,21.25
2022-11-09T13:24:02.694Z,18.80
2022-11-09T13:26:33.281Z,22.10
2022-11-09T13:29:49.098Z,22.27
2022-11-09T13:32:22.371Z,19.25
2022-11-09T13:34:58.130Z,16.73
2022-11-09T13:37:43.584Z,16.08
2022-11-09T13:40:32.501Z,29.80
2022-11-09T13:43:04.890Z,21.73
2022-11-09T13:45:58.555Z,22.88
2022-11-09T13:48:44.460Z,25.43
2022-11-09T13:51:13.569Z,23.90
2022-11-09T13:53:53.369Z,32.13
2022-11-09T13:56:40.307Z,75.53
2022-11-09T13:59:34.128Z,54.10
2022-11-09T14:02:02.844Z,48.23
2022-11-09T14:04:36.792Z,30.77
2022-11-09T14:07:23.347Z,57.53
2022-11-09T14:10:01.710Z,49.80
2022-11-09T14:12:44.092Z,42.20
2022-11-09T14:15:29.510Z,54.60
2022-11-09T14:18:31.567Z,67.33
2022-11-09T14:21:13.743Z,59.63
2022-11-09T14:23:41.691Z,57.77
2022-11-09T14:26:16.215Z,42.50
2022-11-09T14:28:43.810Z,38.43
2022-11-09T14:31:28.759Z,61.80
2022-11-09T14:34:02.255Z,48.43
2022-11-09T14:36:35.416Z,54.77
2022-11-09T14:39:06.954Z,55.53
2022-11-09T14:41:35.137Z,51.60
2022-11-09T14:44:02.557Z,53.90
2022-11-09T14:46:31.949Z,62.37
2022-11-09T14:49:01.900Z,69.93
2022-11-09T14:51:39.749Z,49.93
2022-11-09T14:54:13.593Z,47.83
2022-11-09T14:56:42.971Z,52.07
2022-11-09T14:59:15.400Z,51.23
2022-11-09T15:02:08.462Z,53.93
2022-11-09T15:04:57.157Z,40.07
2022-11-09T15:07:29.131Z,49.63
2022-11-09T15:10:00.153Z,39.07
2022-11-09T15:12:31.994Z,32.17
2022-11-09T15:15:04.488Z,31.60
2022-11-09T15:17:36.768Z,45.20
2022-11-09T15:20:09.988Z,42.20
2022-11-09T15:22:38.191Z,39.90
2022-11-09T15:25:32.340Z,61.53
2022-11-09T15:28:11.764Z,73.67
2022-11-09T15:30:49.520Z,71.23
2022-11-09T15:33:20.537Z,75.73
2022-11-09T15:36:00.187Z,92.57
2022-11-09T15:38:38.191Z,113.13
2022-11-09T15:41:15.510Z,120.53
2022-11-09T15:43:44.056Z,94.70
2022-11-09T15:46:17.036Z,136.97
2022-11-09T15:48:48.407Z,172.60
2022-11-09T15:51:16.662Z,300.47
2022-11-09T15:53:44.190Z,386.50
2022-11-09T15:56:20.520Z,351.93
2022-11-09T15:58:49.686Z,293.70
2022-11-09T16:01:17.043Z,204.03
2022-11-09T16:03:44.533Z,163.83
2022-11-09T16:06:14.979Z,113.47
2022-11-09T16:08:42.312Z,138.00
2022-11-09T16:11:10.907Z,246.10
2022-11-09T16:13:38.452Z,225.00
2022-11-09T16:16:08.286Z,197.20
2022-11-09T16:18:35.997Z,134.37
2022-11-09T16:21:10.668Z,67.23
2022-11-09T16:23:38.798Z,62.43
2022-11-09T16:26:27.503Z,149.50
2022-11-09T16:28:56.112Z,228.07
2022-11-09T16:31:48.079Z,211.33
2022-11-09T16:34:10.702Z,115.43
2022-11-09T16:36:46.457Z,162.50
2022-11-09T16:39:19.460Z,147.07
2022-11-09T16:41:50.042Z,185.53
2022-11-09T16:44:23.644Z,140.87
2022-11-09T16:46:53.376Z,115.57
2022-11-09T16:49:21.609Z,139.33
2022-11-09T16:51:55.393Z,144.40
2022-11-09T16:54:24.970Z,127.03
2022-11-09T16:56:56.950Z,125.87
2022-11-09T16:59:25.951Z,132.83
2022-11-09T17:01:57.529Z,94.07
2022-11-09T17:04:27.206Z,113.57
2022-11-09T17:06:54.936Z,115.60
2022-11-09T17:09:23.946Z,95.13
2022-11-09T17:11:58.166Z,105.93
2022-11-09T17:14:30.895Z,108.70
2022-11-09T17:16:59.356Z,111.87
2022-11-09T17:19:33.894Z,105.27
2022-11-09T17:22:03.353Z,74.13
2022-11-09T17:24:31.572Z,109.60
2022-11-09T17:27:01.340Z,129.80
2022-11-09T17:29:29.682Z,100.07
2022-11-09T17:31:58.549Z,87.80
2022-11-09T17:34:29.837Z,92.50
2022-11-09T17:37:04.338Z,90.47
2022-11-09T17:39:34.504Z,104.80
2022-11-09T17:42:10.027Z,108.80
2022-11-09T17:44:38.635Z,87.37
2022-11-09T17:47:08.617Z,88.87
2022-11-09T17:49:35.962Z,96.60
2022-11-09T17:52:03.433Z,121.00
2022-11-09T17:54:36.451Z,111.57
2022-11-09T17:57:04.867Z,97.10
2022-11-09T17:59:32.615Z,88.87
2022-11-09T18:02:00.096Z,73.53
2022-11-09T18:04:27.438Z,100.37
2022-11-09T18:06:54.829Z,89.17
2022-11-09T18:12:10.469Z,126.70
2022-11-09T18:14:37.837Z,129.30
2022-11-09T18:17:05.096Z,119.20
2022-11-09T18:19:32.920Z,113.20
2022-11-09T18:22:03.075Z,123.00
2022-11-09T18:24:33.290Z,137.27
2022-11-09T18:27:02.197Z,127.53
2022-11-09T18:29:29.645Z,109.67
2022-11-09T18:31:57.507Z,136.67
2022-11-09T18:34:24.852Z,118.73
2022-11-09T18:36:52.177Z,107.27
2022-11-09T18:39:19.675Z,82.17
2022-11-09T18:41:47.103Z,76.00
2022-11-09T18:44:14.433Z,69.60
2022-11-09T18:46:41.880Z,58.40
2022-11-09T18:49:14.067Z,55.73
2022-11-09T18:51:41.772Z,54.37
2022-11-09T18:54:09.144Z,56.10
2022-11-09T18:56:36.412Z,51.33
2022-11-09T18:59:04.090Z,64.67
2022-11-09T19:01:32.327Z,64.43
2022-11-09T19:04:02.234Z,63.97
2022-11-09T19:06:29.732Z,57.40
2022-11-09T19:09:16.274Z,71.43
2022-11-09T19:11:43.597Z,65.37
2022-11-09T19:14:11.781Z,74.47
2022-11-09T19:16:39.136Z,113.00
2022-11-09T19:19:07.086Z,149.87
2022-11-09T19:21:40.431Z,150.70
2022-11-09T19:24:11.380Z,156.80
2022-11-09T19:26:38.845Z,143.93
2022-11-09T19:29:07.750Z,175.63
2022-11-09T19:31:35.995Z,185.97
2022-11-09T19:34:03.586Z,222.57
2022-11-09T19:36:31.705Z,214.70
2022-11-09T19:38:59.696Z,190.73
2022-11-09T19:41:27.263Z,166.37
2022-11-09T19:43:58.866Z,153.23
2022-11-09T19:46:28.261Z,139.90
2022-11-09T19:48:56.034Z,121.57
2022-11-09T19:51:24.342Z,124.03
2022-11-09T19:53:53.292Z,111.00
2022-11-09T19:56:21.901Z,90.13
2022-11-09T19:58:51.102Z,72.07
2022-11-09T20:01:19.345Z,45.57
2022-11-09T20:03:52.260Z,48.57
2022-11-09T20:06:21.081Z,54.13
2022-11-09T20:08:48.474Z,51.43
2022-11-09T20:11:36.159Z,55.53
2022-11-09T20:14:05.586Z,58.40
2022-11-09T20:16:34.515Z,93.83
2022-11-09T20:19:03.309Z,80.50
2022-11-09T20:21:30.909Z,104.73
2022-11-09T20:23:59.768Z,109.97
2022-11-09T20:26:27.089Z,147.20
2022-11-09T20:28:55.317Z,142.53
2022-11-09T20:31:23.709Z,126.30
2022-11-09T20:33:52.221Z,125.63
2022-11-09T20:36:19.957Z,63.60
2022-11-09T20:38:47.839Z,57.80
2022-11-09T20:41:15.379Z,51.17
2022-11-09T20:43:42.930Z,55.37
2022-11-09T20:46:17.672Z,51.10
2022-11-09T20:48:54.473Z,53.87
2022-11-09T20:51:24.174Z,51.80
2022-11-09T20:53:51.889Z,55.33
2022-11-09T20:56:22.889Z,51.40
2022-11-09T20:58:50.222Z,58.43
2022-11-09T21:01:25.447Z,97.87
2022-11-09T21:03:53.406Z,62.77
2022-11-09T21:06:21.939Z,62.23
2022-11-09T21:08:54.818Z,103.37
2022-11-09T21:11:24.198Z,113.83
2022-11-09T21:13:52.748Z,102.83
2022-11-09T21:16:21.709Z,91.97
2022-11-09T21:18:49.843Z,90.67
2022-11-09T21:21:20.131Z,89.83
2022-11-09T21:24:06.221Z,74.93
2022-11-09T21:26:52.459Z,76.53
2022-11-09T21:29:40.705Z,73.97
2022-11-09T21:32:09.039Z,72.70
2022-11-09T21:34:37.358Z,99.07
2022-11-09T21:37:05.274Z,96.47
2022-11-09T21:39:32.880Z,80.23
2022-11-09T21:42:00.858Z,67.03
2022-11-09T21:44:33.179Z,67.60
2022-11-09T21:47:01.655Z,67.10
2022-11-09T21:49:29.462Z,74.13
2022-11-09T21:51:57.598Z,72.93
2022-11-09T21:54:25.690Z,81.47
2022-11-09T21:56:53.616Z,71.00
2022-11-09T21:59:21.634Z,72.17
2022-11-09T22:01:49.491Z,71.73
2022-11-09T22:04:16.955Z,69.40
2022-11-09T22:06:44.922Z,68.23
2022-11-09T22:09:17.820Z,65.53
2022-11-09T22:12:04.808Z,71.53
2022-11-09T22:14:50.381Z,86.10
2022-11-09T22:17:17.908Z,83.20
2022-11-09T22:20:03.735Z,78.30
2022-11-09T22:22:31.960Z,73.73
2022-11-09T22:25:01.454Z,68.80
2022-11-09T22:27:31.659Z,69.73
2022-11-09T22:29:59.222Z,69.23
2022-11-09T22:32:27.020Z,70.40
2022-11-09T22:34:54.415Z,69.97
2022-11-09T22:37:21.843Z,64.37
2022-11-09T22:39:49.443Z,64.53
2022-11-09T22:42:16.860Z,64.00
2022-11-09T22:44:44.220Z,65.67
2022-11-09T22:47:11.453Z,66.97
2022-11-09T22:49:38.775Z,66.70
2022-11-09T22:52:06.775Z,62.57
2022-11-09T22:54:34.215Z,63.30
2022-11-09T22:57:01.500Z,61.27
2022-11-09T22:59:28.951Z,63.07
2022-11-09T23:01:58.217Z,59.43
2022-11-09T23:04:25.860Z,57.40
2022-11-09T23:06:53.704Z,60.93
2022-11-09T23:09:20.989Z,69.57
2022-11-09T23:11:48.272Z,61.97
2022-11-09T23:14:15.608Z,59.67
2022-11-09T23:16:43.053Z,64.13
2022-11-09T23:19:10.314Z,63.83
2022-11-09T23:21:38.277Z,57.10
2022-11-09T23:24:07.706Z,58.73
2022-11-09T23:26:35.652Z,56.87
2022-11-09T23:29:03.022Z,64.10
2022-11-09T23:31:30.771Z,59.90
2022-11-09T23:33:58.573Z,62.53
2022-11-09T23:36:27.351Z,63.33
2022-11-09T23:38:55.086Z,61.47
2022-11-09T23:41:22.579Z,60.67
2022-11-09T23:43:50.324Z,56.93
2022-11-09T23:46:18.259Z,64.67
2022-11-09T23:48:45.898Z,54.47
2022-11-09T23:51:13.236Z,57.27
2022-11-09T23:53:40.578Z,53.73
2022-11-09T23:56:12.567Z,55.70
2022-11-09T23:58:40.205Z,58.23
